createdAt,value
2019-06-08T00:00:08.545Z,1014.7
2019-06-08T00:05:06.418Z,1014.95
2019-06-08T00:10:06.888Z,1014.93
2019-06-08T00:15:08.594Z,1014.92
2019-06-08T00:20:06.983Z,1015
2019-06-08T00:25:07.219Z,1015.08
2019-06-08T00:29:06.610Z,1015.2
2019-06-08T00:34:06.404Z,1015.47
2019-06-08T00:39:06.898Z,1015.91
2019-06-08T00:44:06.069Z,1016.21
2019-06-08T00:49:06.264Z,1016.33
2019-06-08T00:54:06.460Z,1016.39
2019-06-08T00:59:06.703Z,1016.5
2019-06-08T01:03:09.758Z,1016.61
2019-06-08T01:08:06.811Z,1016.86
2019-06-08T01:13:06.681Z,1016.98
2019-06-08T01:18:06.787Z,1016.98
2019-06-08T01:23:06.159Z,1017.02
2019-06-08T01:28:06.387Z,1016.98
2019-06-08T01:33:06.495Z,1017.03
2019-06-08T01:37:07.488Z,1017.11
2019-06-08T01:42:07.288Z,1017.28
2019-06-08T01:47:06.572Z,1017.64
2019-06-08T01:52:06.928Z,1017.53
2019-06-08T01:57:07.273Z,1017.78
2019-06-08T02:02:07.416Z,1017.75
2019-06-08T02:07:06.750Z,1017.78
2019-06-08T02:12:06.638Z,1017.93
2019-06-08T02:16:07.071Z,1017.98
2019-06-08T02:21:06.359Z,1018.14
2019-06-08T02:26:06.637Z,1018.09
2019-06-08T02:31:07.047Z,1018.31
2019-06-08T02:36:06.253Z,1018.29
2019-06-08T02:41:06.843Z,1018.09
2019-06-08T02:46:07.021Z,1018.17
2019-06-08T02:51:06.367Z,1018.13
2019-06-08T02:55:07.150Z,1018.17
2019-06-08T03:00:08.561Z,1018.38
2019-06-08T03:05:07.188Z,1018.3
2019-06-08T03:10:06.717Z,1018.23
2019-06-08T03:15:08.579Z,1018.03
2019-06-08T03:20:06.807Z,1018
2019-06-08T03:25:06.973Z,1017.8
2019-06-08T03:29:06.991Z,1018.07
2019-06-08T03:34:07.203Z,1018.14
2019-06-08T03:39:06.833Z,1018.13
2019-06-08T03:44:07.179Z,1018.62
2019-06-08T03:49:06.554Z,1018.6
2019-06-08T03:54:07.519Z,1018.49
2019-06-08T03:59:07.073Z,1018.61
2019-06-08T04:04:06.618Z,1018.69
2019-06-08T04:09:07.419Z,1018.77
2019-06-08T04:13:11.894Z,1019.11
2019-06-08T04:14:07.021Z,1019.11
2019-06-08T04:18:06.462Z,1019.14
2019-06-08T04:23:06.706Z,1019.09
2019-06-08T04:28:06.946Z,1019.17
2019-06-08T04:33:05.872Z,1019.26
2019-06-08T04:38:06.043Z,1019.5
2019-06-08T04:43:06.549Z,1019.4
2019-06-08T04:48:09.601Z,1019.55
2019-06-08T04:52:06.934Z,1019.65
2019-06-08T04:57:07.248Z,1019.69
2019-06-08T05:02:07.728Z,1019.78
2019-06-08T05:07:06.094Z,1019.61
2019-06-08T05:12:06.661Z,1019.86
2019-06-08T05:17:06.535Z,1020.04
2019-06-08T05:21:07.671Z,1019.87
2019-06-08T05:22:06.316Z,1019.87
2019-06-08T05:26:06.953Z,1019.87
2019-06-08T05:31:07.154Z,1019.8
2019-06-08T05:36:06.376Z,1019.89
2019-06-08T05:41:06.249Z,1019.99
2019-06-08T05:46:07.218Z,1020.03
2019-06-08T05:51:06.386Z,1020
2019-06-08T05:56:06.623Z,1019.68
2019-06-08T06:00:09.772Z,1019.75
2019-06-08T06:05:06.580Z,1019.89
2019-06-08T06:10:06.424Z,1019.83
2019-06-08T06:15:08.398Z,1020.2
2019-06-08T06:20:06.631Z,1020.29
2019-06-08T06:25:06.769Z,1020.45
2019-06-08T06:29:07.520Z,1020.67
2019-06-08T06:34:07.095Z,1020.42
2019-06-08T06:39:06.729Z,1020.59
2019-06-08T06:44:06.620Z,1020.83
2019-06-08T06:49:06.671Z,1020.94
2019-06-08T06:54:07.540Z,1021.26
2019-06-08T06:59:06.787Z,1021.27
2019-06-08T07:03:06.795Z,1021.21
2019-06-08T07:08:07.195Z,1021.36
2019-06-08T07:13:06.818Z,1021.22
2019-06-08T07:18:06.336Z,1021.32
2019-06-08T07:23:06.567Z,1021.56
2019-06-08T07:28:06.972Z,1021.66
2019-06-08T07:33:07.236Z,1021.77
2019-06-08T07:37:06.509Z,1021.8
2019-06-08T07:42:06.149Z,1021.62
2019-06-08T07:47:06.268Z,1021.69
2019-06-08T07:52:10.066Z,1021.7
2019-06-08T07:57:06.117Z,1021.32
2019-06-08T08:02:06.250Z,1021.19
2019-06-08T08:06:06.587Z,1021.46
2019-06-08T08:11:06.510Z,1021.69
2019-06-08T08:16:06.575Z,1021.6
2019-06-08T08:21:18.706Z,1021.64
2019-06-08T08:26:06.058Z,1021.86
2019-06-08T08:31:07.760Z,1021.82
2019-06-08T08:36:07.951Z,1021.92
2019-06-08T08:41:11.073Z,1021.86
2019-06-08T08:46:08.131Z,1021.79
2019-06-08T08:50:07.835Z,1021.51
2019-06-08T08:55:08.747Z,1021.9
2019-06-08T09:00:09.095Z,1021.76
2019-06-08T09:05:08.915Z,1021.72
2019-06-08T09:10:11.684Z,1021.8
2019-06-08T09:15:09.030Z,1022
2019-06-08T09:20:15.739Z,1022.26
2019-06-08T09:24:08.125Z,1022.29
2019-06-08T09:25:09.479Z,1022.29
2019-06-08T09:29:11.537Z,1022.11
2019-06-08T09:34:15.588Z,1022.24
2019-06-08T09:39:13.393Z,1022.27
2019-06-08T09:44:11.953Z,1022.21
2019-06-08T09:49:12.098Z,1022.3
2019-06-08T09:54:13.036Z,1022.45
2019-06-08T09:58:09.259Z,1022.39
2019-06-08T10:03:09.839Z,1022.41
2019-06-08T10:08:06.122Z,1022.41
2019-06-08T10:13:09.286Z,1022.42
2019-06-08T10:18:08.184Z,1022.61
2019-06-08T10:23:31.605Z,1022.53
2019-06-08T10:28:17.349Z,1022.49
2019-06-08T10:32:08.576Z,1022.68
2019-06-08T10:37:08.934Z,1022.76
2019-06-08T10:42:06.969Z,1022.58
2019-06-08T10:47:09.878Z,1022.4
2019-06-08T10:52:12.260Z,1022.44
2019-06-08T10:57:09.592Z,1022.34
2019-06-08T11:02:14.028Z,1022.34
2019-06-08T11:06:13.359Z,1022.25
2019-06-08T11:11:12.107Z,1022.23
2019-06-08T11:16:13.573Z,1022.31
2019-06-08T11:21:09.843Z,1022.49
2019-06-08T11:26:13.431Z,1022.47
2019-06-08T11:31:11.847Z,1022.29
2019-06-08T11:35:12.458Z,1022.4
2019-06-08T11:36:10.681Z,1022.4
2019-06-08T11:40:12.648Z,1022.44
2019-06-08T11:45:12.844Z,1022.38
2019-06-08T11:50:11.571Z,1022.38
2019-06-08T11:55:10.847Z,1022.44
2019-06-08T12:00:27.359Z,1022.42
2019-06-08T12:05:13.888Z,1022.37
2019-06-08T12:10:11.261Z,1022.52
2019-06-08T12:14:11.339Z,1022.51
2019-06-08T12:19:14.020Z,1022.24
2019-06-08T12:24:08.156Z,1022.15
2019-06-08T12:29:12.725Z,1022.04
2019-06-08T12:34:07.520Z,1022.14
2019-06-08T12:39:07.856Z,1022.29
2019-06-08T12:43:11.594Z,1022.22
2019-06-08T12:48:08.724Z,1022.26
2019-06-08T12:53:10.217Z,1022.17
2019-06-08T12:58:08.481Z,1022.37
2019-06-08T13:03:09.821Z,1022.35
2019-06-08T13:08:11.515Z,1022.24
2019-06-08T13:13:11.064Z,1022.35
2019-06-08T13:18:10.279Z,1022.23
2019-06-08T13:22:06.857Z,1022.19
2019-06-08T13:27:06.482Z,1022.11
2019-06-08T13:32:07.803Z,1022.5
2019-06-08T13:37:08.324Z,1022.49
2019-06-08T13:42:08.173Z,1022.59
2019-06-08T13:47:10.931Z,1022.7
2019-06-08T13:51:08.401Z,1022.66
2019-06-08T13:56:07.796Z,1022.73
2019-06-08T14:01:10.410Z,1022.69
2019-06-08T14:06:08.104Z,1022.69
2019-06-08T14:11:08.696Z,1022.6
2019-06-08T14:16:11.746Z,1022.8
2019-06-08T14:21:07.107Z,1022.74
2019-06-08T14:25:10.329Z,1022.71
2019-06-08T14:30:08.322Z,1022.77
2019-06-08T14:35:08.409Z,1022.88
2019-06-08T14:40:08.114Z,1022.86
2019-06-08T14:45:10.594Z,1022.78
2019-06-08T14:50:07.946Z,1022.83
2019-06-08T14:55:07.933Z,1022.88
2019-06-08T14:59:08.615Z,1023
2019-06-08T15:04:06.158Z,1022.92
2019-06-08T15:09:08.613Z,1022.82
2019-06-08T15:14:08.390Z,1022.97
2019-06-08T15:19:08.101Z,1022.92
2019-06-08T15:24:08.052Z,1022.97
2019-06-08T15:28:08.646Z,1023.15
2019-06-08T15:33:06.929Z,1022.96
2019-06-08T15:38:08.804Z,1023.03
2019-06-08T15:43:08.900Z,1023.09
2019-06-08T15:48:08.422Z,1022.95
2019-06-08T15:53:08.794Z,1022.96
2019-06-08T15:58:09.423Z,1023.09
2019-06-08T16:02:07.889Z,1023.12
2019-06-08T16:07:06.690Z,1023.01
2019-06-08T16:12:06.906Z,1023.09
2019-06-08T16:17:06.991Z,1023
2019-06-08T16:22:06.269Z,1022.98
2019-06-08T16:27:06.482Z,1023.06
2019-06-08T16:32:06.786Z,1023.02
2019-06-08T16:36:06.579Z,1023.07
2019-06-08T16:41:07.178Z,1023.08
2019-06-08T16:46:06.384Z,1023.17
2019-06-08T16:51:06.740Z,1023.13
2019-06-08T16:56:07.090Z,1023.1
2019-06-08T17:01:06.839Z,1023.13
2019-06-08T17:06:07.449Z,1023.1
2019-06-08T17:11:07.610Z,1023.12
2019-06-08T17:15:08.985Z,1023.23
2019-06-08T17:20:06.472Z,1023.27
2019-06-08T17:25:08.887Z,1023.28
2019-06-08T17:30:09.184Z,1023.31
2019-06-08T17:35:07.229Z,1023.4
2019-06-08T17:40:07.884Z,1023.33
2019-06-08T17:44:07.299Z,1023.4
2019-06-08T17:49:06.115Z,1023.34
2019-06-08T17:54:06.803Z,1023.35
2019-06-08T17:59:06.077Z,1023.43
2019-06-08T18:04:08.499Z,1023.4
2019-06-08T18:09:08.263Z,1023.49
2019-06-08T18:14:09.138Z,1023.55
2019-06-08T18:18:08.528Z,1023.61
2019-06-08T18:23:07.896Z,1023.7
2019-06-08T18:28:10.780Z,1023.76
2019-06-08T18:33:07.340Z,1023.86
2019-06-08T18:38:07.283Z,1023.84
2019-06-08T18:43:07.568Z,1024.02
2019-06-08T18:47:07.839Z,1024.02
2019-06-08T18:52:08.579Z,1024.07
2019-06-08T18:57:11.732Z,1024.11
2019-06-08T19:02:07.929Z,1024.18
2019-06-08T19:07:07.818Z,1024.25
2019-06-08T19:12:06.457Z,1024.32
2019-06-08T19:16:07.978Z,1024.47
2019-06-08T19:21:08.156Z,1024.54
2019-06-08T19:26:08.101Z,1024.62
2019-06-08T19:31:10.554Z,1024.75
2019-06-08T19:36:08.152Z,1024.87
2019-06-08T19:41:08.568Z,1024.85
2019-06-08T19:46:07.753Z,1024.91
2019-06-08T19:50:08.208Z,1024.93
2019-06-08T19:55:08.416Z,1025.04
2019-06-08T20:00:08.410Z,1025.05
2019-06-08T20:05:10.406Z,1025.2
2019-06-08T20:10:08.124Z,1025.25
2019-06-08T20:15:08.969Z,1025.33
2019-06-08T20:20:11.359Z,1025.35
2019-06-08T20:24:10.715Z,1025.31
2019-06-08T20:29:16.545Z,1025.39
2019-06-08T20:34:07.433Z,1025.42
2019-06-08T20:39:07.764Z,1025.47
2019-06-08T20:44:08.910Z,1025.54
2019-06-08T20:49:08.804Z,1025.55
2019-06-08T20:54:08.391Z,1025.64
2019-06-08T20:59:08.681Z,1025.67
2019-06-08T21:03:08.591Z,1025.67
2019-06-08T21:08:08.786Z,1025.76
2019-06-08T21:13:07.660Z,1025.77
2019-06-08T21:18:07.836Z,1025.83
2019-06-08T21:23:08.088Z,1025.77
2019-06-08T21:28:07.715Z,1025.85
2019-06-08T21:33:08.198Z,1025.81
2019-06-08T21:37:09.513Z,1025.89
2019-06-08T21:42:08.325Z,1025.9
2019-06-08T21:47:08.294Z,1025.88
2019-06-08T21:52:07.701Z,1025.9
2019-06-08T21:57:09.867Z,1025.85
2019-06-08T22:02:08.022Z,1025.82
2019-06-08T22:07:07.066Z,1025.87
2019-06-08T22:11:09.325Z,1025.86
2019-06-08T22:16:08.727Z,1025.84
2019-06-08T22:21:08.568Z,1025.83
2019-06-08T22:26:08.778Z,1025.99
2019-06-08T22:31:08.385Z,1025.99
2019-06-08T22:36:09.332Z,1025.96
2019-06-08T22:40:09.047Z,1026.07
2019-06-08T22:41:08.454Z,1026.07
2019-06-08T22:45:09.187Z,1026.06
2019-06-08T22:50:08.687Z,1026.12
2019-06-08T22:55:11.601Z,1026.06
2019-06-08T23:00:24.669Z,1026.08
2019-06-08T23:05:09.764Z,1026.16
2019-06-08T23:10:09.765Z,1026.23
2019-06-08T23:15:08.641Z,1026.24
2019-06-08T23:20:09.501Z,1026.25
2019-06-08T23:24:08.996Z,1026.21
2019-06-08T23:25:10.354Z,1026.21
2019-06-08T23:29:09.849Z,1026.22
2019-06-08T23:34:11.582Z,1026.28
2019-06-08T23:39:07.636Z,1026.34
2019-06-08T23:44:08.139Z,1026.31
2019-06-08T23:49:09.291Z,1026.32
2019-06-08T23:54:12.424Z,1026.3
2019-06-08T23:58:11.231Z,1026.34
